Time;durP1;ratioP1;P1;durP2;ratioP2;P2;SDS_P1;SDS_P2;PMS_P1;PMS_P2;Temp;Humidity;BMP_temperature;BMP_pressure;BME280_temperature;BME280_humidity;BME280_pressure;Samples;Min_cycle;Max_cycle;Signal;HPM_P1;HPM_P2
2021/05/31 00:01:23;;;;;;;2.67;1.27;;;;;;;;;;4777781;28;20251;-75
2021/05/31 00:03:45;;;;;;;4.43;1.80;;;9.40;47.20;;;;;;4780542;29;20189;-75
2021/05/31 00:06:07;;;;;;;3.17;1.30;;;;;;;;;;4787468;28;20216;-76
2021/05/31 00:08:29;;;;;;;2.57;1.30;;;9.30;1.00;;;;;;4764360;28;20222;-76
2021/05/31 00:10:53;;;;;;;4.73;2.07;;;9.30;99.90;;;;;;4786973;28;20239;-79
2021/05/31 00:13:17;;;;;;;3.97;1.80;;;9.30;99.90;;;;;;4790472;28;20223;-78
2021/05/31 00:15:39;;;;;;;4.53;1.97;;;9.40;1.00;;;;;;4788725;28;20228;-76
2021/05/31 00:18:01;;;;;;;4.87;1.43;;;9.30;1.00;;;;;;4784155;28;20200;-76
2021/05/31 00:20:23;;;;;;;3.47;1.73;;;;;;;;;;4786684;28;20250;-75
2021/05/31 00:22:46;;;;;;;4.93;2.10;;;9.00;1.00;;;;;;4783642;28;20204;-76
2021/05/31 00:25:09;;;;;;;2.67;1.40;;;9.20;1.00;;;;;;4790605;28;20208;-77
2021/05/31 00:27:33;;;;;;;3.03;1.40;;;9.20;1.00;;;;;;4790829;28;20184;-80
2021/05/31 00:29:55;;;;;;;4.27;1.93;;;9.10;1.00;;;;;;4789395;28;20658;-76
2021/05/31 00:32:17;;;;;;;3.13;1.50;;;9.20;1.00;;;;;;4788538;28;20196;-82
2021/05/31 00:34:39;;;;;;;4.33;1.77;;;9.30;1.00;;;;;;4785849;28;20246;-83
2021/05/31 00:37:01;;;;;;;3.13;1.40;;;;;;;;;;4788155;28;20216;-77
2021/05/31 00:39:23;;;;;;;4.47;1.50;;;9.20;1.00;;;;;;4790046;28;20184;-80
2021/05/31 00:41:48;;;;;;;3.93;1.67;;;9.20;1.00;;;;;;4785248;28;20184;-82
2021/05/31 00:44:11;;;;;;;2.93;1.30;;;9.30;1.00;;;;;;4788255;28;20231;-81
2021/05/31 00:46:34;;;;;;;4.07;1.93;;;;;;;;;;4814588;28;20187;-83
2021/05/31 00:48:56;;;;;;;4.50;1.83;;;;;;;;;;4790418;28;20188;-81
2021/05/31 00:51:18;;;;;;;3.00;1.57;;;;;;;;;;4788701;28;20193;-83
2021/05/31 00:53:41;;;;;;;4.07;1.83;;;;;;;;;;4790822;28;20513;-83
2021/05/31 00:56:04;;;;;;;2.83;1.40;;;9.20;1.00;;;;;;4789774;28;20212;-77
2021/05/31 00:58:28;;;;;;;3.67;1.67;;;9.30;1.00;;;;;;4792340;28;20185;-76
2021/05/31 01:00:51;;;;;;;9.27;3.63;;;9.20;1.00;;;;;;4792241;28;20227;-76
2021/05/31 01:03:13;;;;;;;3.37;1.60;;;9.20;1.00;;;;;;4792824;28;20271;-77
2021/05/31 01:05:36;;;;;;;1.97;1.13;;;;;;;;;;4793400;28;20224;-82
2021/05/31 01:08:01;;;;;;;2.53;1.27;;;9.00;1.00;;;;;;4789675;28;20215;-77
2021/05/31 01:10:28;;;;;;;3.83;1.73;;;9.10;1.00;;;;;;4790794;28;20208;-77
2021/05/31 01:12:57;;;;;;;4.40;1.77;;;9.20;1.00;;;;;;4791486;28;20181;-77
2021/05/31 01:15:23;;;;;;;4.00;1.47;;;9.30;1.00;;;;;;4774138;28;20914;-79
2021/05/31 01:17:56;;;;;;;6.73;2.37;;;9.20;1.00;;;;;;4776296;28;20293;-77
2021/05/31 01:20:43;;;;;;;4.43;1.67;;;8.60;1.00;;;;;;4772733;28;20189;-79
2021/05/31 01:23:09;;;;;;;3.97;1.70;;;9.20;1.00;;;;;;4793894;28;20188;-78
2021/05/31 01:25:36;;;;;;;4.70;1.97;;;8.70;1.00;;;;;;4793071;28;20212;-78
2021/05/31 01:28:33;;;;;;;3.50;1.73;;;8.80;1.00;;;;;;4793474;28;20251;-78
2021/05/31 01:30:59;;;;;;;3.27;1.70;;;9.20;1.00;;;;;;4774709;28;20965;-77
2021/05/31 01:33:24;;;;;;;4.57;2.10;;;9.20;1.00;;;;;;4792121;28;20667;-78
2021/05/31 01:35:47;;;;;;;6.00;2.30;;;9.20;1.00;;;;;;4790411;28;20744;-77
2021/05/31 01:38:10;;;;;;;3.40;1.60;;;9.20;1.00;;;;;;4792294;28;20215;-77
2021/05/31 01:40:33;;;;;;;3.60;1.63;;;9.10;1.00;;;;;;4789348;28;20200;-80
2021/05/31 01:43:00;;;;;;;3.17;1.40;;;9.20;1.00;;;;;;4793928;28;20808;-80
2021/05/31 01:45:22;;;;;;;5.33;2.10;;;9.20;1.00;;;;;;4768659;28;20197;-78
2021/05/31 01:47:46;;;;;;;5.53;2.20;;;9.40;1.00;;;;;;4791797;28;20719;-77
2021/05/31 01:50:10;;;;;;;2.73;1.30;;;9.30;1.00;;;;;;4790810;28;20251;-79
2021/05/31 01:52:33;;;;;;;3.87;1.73;;;9.30;1.00;;;;;;4783353;28;20201;-81
2021/05/31 01:54:57;;;;;;;2.30;1.20;;;9.30;1.00;;;;;;4790394;28;20193;-77
2021/05/31 01:57:20;;;;;;;3.90;1.67;;;9.30;1.00;;;;;;4790167;28;20267;-78
2021/05/31 01:59:42;;;;;;;5.17;2.13;;;9.30;1.00;;;;;;4788075;28;20200;-77
2021/05/31 02:02:05;;;;;;;2.77;1.47;;;9.20;1.00;;;;;;4790221;28;20216;-78
2021/05/31 02:04:29;;;;;;;4.00;1.80;;;9.40;1.00;;;;;;4797433;28;20260;-77
2021/05/31 02:06:52;;;;;;;5.13;2.30;;;9.20;1.00;;;;;;4790561;28;20220;-78
2021/05/31 02:09:14;;;;;;;3.47;1.50;;;9.60;1.00;;;;;;4791456;28;20221;-79
2021/05/31 02:11:42;;;;;;;2.30;1.20;;;9.30;1.00;;;;;;4790929;28;20196;-84
2021/05/31 02:14:09;;;;;;;3.43;1.70;;;9.30;1.00;;;;;;4777947;28;20231;-77
2021/05/31 02:16:37;;;;;;;3.50;1.60;;;9.30;1.00;;;;;;4792105;28;20700;-77
2021/05/31 02:19:01;;;;;;;2.80;1.37;;;9.30;1.00;;;;;;4769772;29;20245;-78
2021/05/31 02:21:25;;;;;;;5.90;2.50;;;9.20;1.00;;;;;;4785595;28;20256;-83
2021/05/31 02:23:49;;;;;;;5.43;2.30;;;9.40;1.00;;;;;;4791909;28;20709;-83
2021/05/31 02:26:14;;;;;;;3.60;1.70;;;9.30;1.00;;;;;;4791626;28;20251;-83
2021/05/31 02:28:37;;;;;;;2.90;1.50;;;;;;;;;;4777780;28;20193;-82
2021/05/31 02:31:02;;;;;;;2.87;1.60;;;9.30;1.00;;;;;;4790411;28;20205;-82
2021/05/31 02:33:25;;;;;;;3.63;1.90;;;9.40;1.00;;;;;;4790529;28;20195;-83
2021/05/31 02:35:47;;;;;;;6.20;2.80;;;9.20;1.00;;;;;;4771844;29;20198;-84
2021/05/31 02:38:11;;;;;;;4.63;1.93;;;9.30;1.00;;;;;;4773813;28;20198;-83
2021/05/31 02:40:34;;;;;;;3.20;1.67;;;9.20;1.00;;;;;;4782703;28;20220;-83
2021/05/31 02:42:59;;;;;;;3.00;1.50;;;9.30;1.00;;;;;;4790071;28;20572;-82
2021/05/31 02:45:23;;;;;;;3.37;1.87;;;10.00;1.00;;;;;;4796599;28;20193;-82
2021/05/31 02:47:46;;;;;;;5.20;2.40;;;9.30;1.00;;;;;;4789185;28;20271;-82
2021/05/31 02:50:09;;;;;;;2.83;1.77;;;9.30;1.00;;;;;;4788613;28;20260;-82
2021/05/31 02:52:31;;;;;;;3.90;2.03;;;9.90;1.00;;;;;;4773386;28;20230;-83
2021/05/31 02:54:54;;;;;;;4.83;2.27;;;9.30;1.00;;;;;;4794713;28;20599;-82
2021/05/31 02:57:16;;;;;;;2.37;1.40;;;;;;;;;;4787388;28;20236;-81
2021/05/31 02:59:38;;;;;;;3.00;1.53;;;9.20;1.00;;;;;;4793386;28;20188;-82
2021/05/31 03:02:00;;;;;;;4.10;1.33;;;;;;;;;;4787766;28;20679;-82
2021/05/31 03:04:22;;;;;;;4.53;2.03;;;9.40;1.00;;;;;;4799073;28;20195;-81
2021/05/31 03:06:44;;;;;;;5.27;2.27;;;9.20;1.00;;;;;;4800187;28;20272;-83
2021/05/31 03:09:07;;;;;;;3.90;1.63;;;;;;;;;;4799753;28;20212;-82
2021/05/31 03:11:30;;;;;;;3.07;1.57;;;9.40;1.00;;;;;;4800153;28;20192;-83
2021/05/31 03:13:52;;;;;;;4.73;2.10;;;9.40;1.00;;;;;;4799823;28;20243;-83
2021/05/31 03:16:14;;;;;;;3.80;1.70;;;9.30;1.00;;;;;;4799516;28;20266;-81
2021/05/31 03:18:36;;;;;;;3.00;1.50;;;;;;;;;;4799302;28;20262;-80
2021/05/31 03:20:58;;;;;;;2.53;1.43;;;;;;;;;;4798611;28;20195;-77
2021/05/31 03:23:21;;;;;;;4.53;1.93;;;;;;;;;;4799486;28;20192;-77
2021/05/31 03:25:43;;;;;;;3.53;1.60;;;;;;;;;;4793459;28;20187;-77
2021/05/31 03:28:07;;;;;;;2.97;1.57;;;9.50;1.00;;;;;;4799819;28;20188;-78
2021/05/31 03:30:29;;;;;;;3.60;1.67;;;9.50;1.00;;;;;;4784559;28;20606;-77
2021/05/31 03:32:51;;;;;;;4.87;2.07;;;9.50;1.00;;;;;;4794388;28;20200;-76
2021/05/31 03:35:14;;;;;;;2.90;1.40;;;9.30;1.00;;;;;;4806654;28;20208;-76
2021/05/31 03:37:36;;;;;;;2.57;1.20;;;;;;;;;;4804270;28;20247;-76
2021/05/31 03:39:58;;;;;;;3.17;1.43;;;;;;;;;;4799428;28;20188;-76
2021/05/31 03:42:21;;;;;;;4.60;1.87;;;;;;;;;;4799116;28;20184;-76
2021/05/31 03:44:44;;;;;;;4.47;1.83;;;9.40;1.00;;;;;;4799170;28;20192;-76
2021/05/31 03:47:06;;;;;;;3.47;1.70;;;9.40;1.00;;;;;;4798258;28;20196;-76
2021/05/31 03:49:28;;;;;;;2.90;1.57;;;10.20;1.00;;;;;;4799043;28;20239;-75
2021/05/31 03:51:50;;;;;;;4.37;1.90;;;9.10;1.00;;;;;;4798620;28;20547;-80
2021/05/31 03:54:12;;;;;;;5.00;2.10;;;;;;;;;;4799033;28;20765;-80
2021/05/31 03:56:35;;;;;;;3.70;1.67;;;;;;;;;;4781384;28;20295;-82
2021/05/31 03:58:57;;;;;;;2.23;1.20;;;;;;;;;;4798848;28;20243;-79
2021/05/31 04:01:20;;;;;;;3.50;1.60;;;9.20;1.00;;;;;;4776531;28;20225;-82
2021/05/31 04:03:43;;;;;;;4.67;2.10;;;;;;;;;;4799026;28;20246;-82
2021/05/31 04:06:16;;;;;;;1.80;1.00;;;;;;;;;;4798165;28;20817;-82
2021/05/31 04:11:36;;;;;;;4.07;1.80;;;8.70;1.00;;;;;;4798436;28;20192;-80
2021/05/31 04:13:59;;;;;;;4.30;1.93;;;;;;;;;;4798848;28;20234;-76
2021/05/31 04:16:22;;;;;;;3.80;1.70;;;9.10;1.00;;;;;;4798781;28;20196;-76
2021/05/31 04:18:44;;;;;;;4.10;2.00;;;9.10;1.00;;;;;;4799022;28;20599;-80
2021/05/31 04:21:06;;;;;;;3.03;1.57;;;9.20;1.00;;;;;;4798752;28;20203;-82
2021/05/31 04:23:28;;;;;;;3.53;1.67;;;9.20;1.00;;;;;;4798849;28;20599;-82
2021/05/31 04:25:50;;;;;;;4.83;2.10;;;8.90;1.00;;;;;;4797693;28;20195;-82
2021/05/31 04:28:12;;;;;;;3.13;1.60;;;9.30;1.00;;;;;;4780619;28;20228;-80
2021/05/31 04:30:34;;;;;;;2.40;1.43;;;9.30;1.00;;;;;;4806554;28;20196;-82
2021/05/31 04:32:58;;;;;;;3.30;1.27;;;8.20;1.00;;;;;;4800666;28;20200;-77
2021/05/31 04:35:20;;;;;;;2.93;1.53;;;9.20;1.00;;;;;;4802638;28;20246;-76
2021/05/31 04:37:42;;;;;;;5.60;2.23;;;9.20;1.00;;;;;;4802705;28;20219;-75
2021/05/31 04:40:05;;;;;;;2.63;1.30;;;9.30;1.00;;;;;;4802974;28;20188;-77
2021/05/31 04:42:27;;;;;;;3.07;1.40;;;9.30;1.00;;;;;;4802080;28;20776;-76
2021/05/31 04:44:50;;;;;;;4.13;1.83;;;;;;;;;;4802091;28;20204;-77
2021/05/31 04:47:12;;;;;;;3.03;1.50;;;;;;;;;;4802558;28;20539;-77
2021/05/31 04:49:35;;;;;;;2.77;1.20;;;9.50;1.00;;;;;;4795468;28;20188;-75
2021/05/31 04:51:57;;;;;;;2.83;1.07;;;9.50;1.00;;;;;;4802754;28;20184;-78
2021/05/31 04:54:19;;;;;;;2.87;1.43;;;;;;;;;;4801317;28;20263;-75
2021/05/31 04:56:42;;;;;;;5.90;2.27;;;;;;;;;;4801858;28;20208;-77
2021/05/31 04:59:04;;;;;;;3.03;1.50;;;;;;;;;;4801795;28;20188;-77
2021/05/31 05:01:26;;;;;;;4.67;1.90;;;9.60;1.00;;;;;;4786284;28;20240;-77
2021/05/31 05:03:48;;;;;;;4.20;1.80;;;;;;;;;;4784273;28;20189;-80
2021/05/31 05:06:12;;;;;;;2.23;1.10;;;9.90;1.00;;;;;;4784250;28;20296;-79
2021/05/31 05:08:34;;;;;;;2.73;1.30;;;;;;;;;;4797343;28;20227;-77
2021/05/31 05:10:56;;;;;;;4.43;1.73;;;;;;;;;;4801680;28;20777;-77
2021/05/31 05:13:18;;;;;;;3.63;1.53;;;;;;;;;;4801818;28;20219;-80
2021/05/31 05:15:40;;;;;;;3.57;1.47;;;10.20;1.00;;;;;;4784313;28;20762;-78
2021/05/31 05:18:03;;;;;;;2.97;1.20;;;10.30;1.00;;;;;;4801666;28;20212;-84
2021/05/31 05:20:28;;;;;;;2.90;1.30;;;10.30;1.00;;;;;;4768562;28;20201;-86
2021/05/31 05:22:52;;;;;;;5.07;1.83;;;10.40;1.00;;;;;;4781709;28;20204;-78
2021/05/31 05:25:14;;;;;;;2.70;1.10;;;;;;;;;;4800499;28;20252;-77
2021/05/31 05:27:37;;;;;;;10.30;3.40;;;10.50;1.00;;;;;;4780283;28;21035;-84
2021/05/31 05:29:59;;;;;;;3.50;1.40;;;;;;;;;;4799984;28;20250;-78
2021/05/31 05:32:22;;;;;;;3.37;1.40;;;;;;;;;;4782806;28;20188;-77
2021/05/31 05:34:44;;;;;;;5.37;1.80;;;;;;;;;;4796195;28;20267;-79
2021/05/31 05:37:08;;;;;;;3.47;1.27;;;;;;;;;;4782918;28;20224;-77
2021/05/31 05:39:48;;;;;;;3.47;1.20;;;10.90;1.00;;;;;;4800336;28;20192;-76
2021/05/31 05:42:33;;;;;;;3.33;1.47;;;10.60;1.00;;;;;;4784295;28;20204;-76
2021/05/31 05:47:46;;;;;;;5.47;2.00;;;;;;;;;;4731750;28;20256;-76
2021/05/31 05:50:09;;;;;;;4.10;1.60;;;12.10;99.90;;;;;;4800888;28;20246;-76
2021/05/31 05:52:31;;;;;;;4.37;1.77;;;;;;;;;;4766857;28;20683;-76
2021/05/31 05:54:55;;;;;;;4.57;1.77;;;11.50;99.90;;;;;;4766968;28;20225;-77
2021/05/31 05:57:17;;;;;;;3.00;1.20;;;;;;;;;;4799036;28;20271;-76
2021/05/31 05:59:39;;;;;;;5.30;1.83;;;;;;;;;;4801203;28;20607;-77
2021/05/31 06:02:02;;;;;;;2.87;1.10;;;;;;;;;;4798601;28;20231;-77
2021/05/31 06:04:24;;;;;;;3.67;1.20;;;;;;;;;;4783837;28;20197;-77
2021/05/31 06:06:46;;;;;;;6.50;2.20;;;;;;;;;;4800222;28;20211;-78
2021/05/31 06:09:12;;;;;;;2.43;0.93;;;;;;;;;;4801176;28;20698;-78
2021/05/31 06:11:36;;;;;;;3.73;1.40;;;12.50;99.90;;;;;;4768634;28;20228;-76
2021/05/31 06:13:58;;;;;;;2.30;0.90;;;13.00;99.90;;;;;;4783789;28;20244;-75
2021/05/31 06:16:20;;;;;;;4.57;1.53;;;12.60;1.00;;;;;;4783021;28;20252;-78
2021/05/31 06:18:43;;;;;;;5.57;1.87;;;;;;;;;;4800197;28;20756;-77
2021/05/31 06:21:06;;;;;;;2.80;1.17;;;12.70;85.10;;;;;;4800824;28;20192;-77
2021/05/31 06:23:28;;;;;;;3.27;1.20;;;12.70;1.00;;;;;;4800992;28;20235;-76
2021/05/31 06:25:50;;;;;;;4.57;1.63;;;;;;;;;;4767080;28;20193;-78
2021/05/31 06:28:14;;;;;;;2.87;1.10;;;13.00;99.90;;;;;;4782538;28;20196;-76
2021/05/31 06:30:36;;;;;;;5.30;1.63;;;;;;;;;;4783592;28;20185;-77
2021/05/31 06:32:59;;;;;;;3.20;1.10;;;12.90;1.00;;;;;;4800649;28;20248;-77
2021/05/31 06:35:23;;;;;;;2.67;0.93;;;12.90;1.00;;;;;;4800573;28;20535;-77
2021/05/31 06:37:45;;;;;;;7.83;2.43;;;13.00;1.00;;;;;;4800349;28;20929;-77
2021/05/31 06:40:10;;;;;;;3.33;1.17;;;13.30;21.10;;;;;;4782758;28;20626;-78
2021/05/31 06:42:33;;;;;;;3.97;1.33;;;;;;;;;;4783039;28;20699;-85
2021/05/31 06:44:56;;;;;;;5.10;1.83;;;13.50;1.00;;;;;;4782614;28;20270;-78
2021/05/31 06:47:19;;;;;;;4.03;1.40;;;;;;;;;;4800541;28;20262;-77
2021/05/31 06:49:44;;;;;;;5.70;1.73;;;;;;;;;;4799491;28;20184;-78
2021/05/31 06:52:06;;;;;;;3.30;1.17;;;15.00;99.90;;;;;;4800440;28;20188;-78
2021/05/31 06:54:29;;;;;;;2.67;0.90;;;;;;;;;;4782983;28;20648;-77
2021/05/31 06:56:51;;;;;;;5.10;1.60;;;;;;;;;;4799958;28;20192;-77
2021/05/31 06:59:13;;;;;;;5.93;1.77;;;;;;;;;;4801131;28;20196;-77
2021/05/31 07:01:37;;;;;;;3.90;1.23;;;16.10;1.00;;;;;;4777141;28;20236;-77
2021/05/31 07:03:59;;;;;;;4.57;1.30;;;;;;;;;;4799592;28;20192;-77
2021/05/31 07:06:21;;;;;;;3.17;1.00;;;;;;;;;;4781898;28;20221;-77
2021/05/31 07:08:44;;;;;;;6.37;1.80;;;;;;;;;;4793216;28;20227;-77
2021/05/31 07:11:10;;;;;;;4.00;1.10;;;;;;;;;;4797840;28;20306;-77
2021/05/31 07:13:33;;;;;;;3.93;1.10;;;;;;;;;;4782411;28;20192;-79
2021/05/31 07:15:56;;;;;;;4.73;1.40;;;17.70;1.00;;;;;;4798152;28;20238;-77
2021/05/31 07:18:20;;;;;;;4.40;1.30;;;18.00;1.00;;;;;;4799773;28;20220;-77
2021/05/31 07:20:42;;;;;;;11.23;2.70;;;;;;;;;;4797282;28;20969;-80
2021/05/31 07:23:09;;;;;;;4.87;1.33;;;18.40;99.90;;;;;;4782983;28;21147;-79
2021/05/31 07:25:31;;;;;;;5.70;1.30;;;;;;;;;;4799979;28;20247;-78
2021/05/31 07:27:54;;;;;;;7.17;1.77;;;;;;;;;;4799784;28;20591;-77
2021/05/31 07:30:19;;;;;;;4.03;1.10;;;19.20;99.90;;;;;;4782320;28;20611;-77
2021/05/31 07:32:42;;;;;;;6.50;1.43;;;;;;;;;;4798715;28;20188;-78
2021/05/31 07:35:07;;;;;;;5.90;1.53;;;19.70;99.90;;;;;;4797521;28;20200;-77
2021/05/31 07:37:29;;;;;;;5.10;1.27;;;19.80;1.00;;;;;;4798230;28;20223;-84
2021/05/31 07:39:52;;;;;;;6.57;1.63;;;;;;;;;;4798438;28;20204;-80
2021/05/31 07:42:14;;;;;;;4.43;1.20;;;;;;;;;;4798305;28;20196;-82
2021/05/31 07:44:36;;;;;;;5.27;1.27;;;;;;;;;;4798601;28;20612;-79
2021/05/31 07:46:59;;;;;;;3.67;0.93;;;;;;;;;;4797858;28;20332;-78
2021/05/31 07:49:22;;;;;;;6.47;1.57;;;;;;;;;;4798251;28;20948;-78
2021/05/31 07:51:46;;;;;;;10.10;2.23;;;19.50;99.90;;;;;;4798104;28;20196;-76
2021/05/31 07:54:09;;;;;;;3.07;0.77;;;;;;;;;;4797259;28;20259;-77
2021/05/31 07:56:31;;;;;;;5.27;1.23;;;;;;;;;;4797456;28;20559;-77
2021/05/31 07:58:53;;;;;;;6.47;1.50;;;;;;;;;;4798062;28;20227;-78
2021/05/31 08:01:16;;;;;;;5.87;1.33;;;;;;;;;;4779222;28;20296;-77
2021/05/31 08:03:38;;;;;;;5.87;1.43;;;;;;;;;;4798617;28;20191;-78
2021/05/31 08:06:01;;;;;;;4.30;1.13;;;20.10;1.00;;;;;;4797644;28;20234;-78
2021/05/31 08:08:24;;;;;;;5.20;1.30;;;20.30;99.90;;;;;;4797474;28;20769;-79
2021/05/31 08:10:46;;;;;;;7.77;1.83;;;;;;;;;;4797431;28;20601;-78
2021/05/31 08:13:09;;;;;;;7.70;1.80;;;;;;;;;;4797873;28;20614;-76
2021/05/31 08:15:31;;;;;;;4.20;1.07;;;20.40;1.00;;;;;;4798611;28;20247;-78
2021/05/31 08:17:54;;;;;;;7.83;1.77;;;;;;;;;;4799245;28;20223;-77
2021/05/31 08:20:16;;;;;;;7.50;1.77;;;20.30;99.90;;;;;;4799522;28;20190;-78
2021/05/31 08:22:41;;;;;;;6.20;1.40;;;;;;;;;;4799220;28;20560;-77
2021/05/31 08:25:06;;;;;;;4.20;1.03;;;20.10;99.90;;;;;;4798273;28;20186;-77
2021/05/31 08:27:28;;;;;;;7.00;1.67;;;;;;;;;;4797760;28;20230;-77
2021/05/31 08:29:51;;;;;;;9.23;2.13;;;;;;;;;;4781215;28;20197;-77
2021/05/31 08:32:13;;;;;;;4.90;1.23;;;20.00;1.00;;;;;;4797137;28;20222;-78
2021/05/31 08:34:35;;;;;;;7.10;1.60;;;;;;;;;;4797346;28;20239;-76
2021/05/31 08:36:57;;;;;;;8.80;2.07;;;19.90;1.00;;;;;;4798467;28;20252;-76
2021/05/31 08:39:20;;;;;;;4.23;1.03;;;;;;;;;;4797601;28;20264;-76
2021/05/31 08:41:43;;;;;;;8.60;1.97;;;19.60;99.90;;;;;;4798534;28;20190;-76
2021/05/31 08:44:06;;;;;;;4.70;1.13;;;19.70;99.90;;;;;;4796986;28;20261;-77
2021/05/31 08:46:28;;;;;;;5.47;1.33;;;;;;;;;;4796548;28;20261;-77
2021/05/31 08:48:51;;;;;;;9.17;2.10;;;19.80;99.90;;;;;;4781182;28;20258;-77
2021/05/31 08:51:14;;;;;;;5.53;1.37;;;19.80;99.90;;;;;;4797062;28;20200;-78
2021/05/31 08:53:37;;;;;;;8.53;2.07;;;;;;;;;;4796775;28;20683;-78
2021/05/31 08:55:59;;;;;;;14.83;3.27;;;19.50;99.90;;;;;;4777080;28;20250;-79
2021/05/31 08:58:30;;;;;;;8.37;1.83;;;19.40;99.90;;;;;;4791212;28;20687;-78
2021/05/31 09:04:18;;;;;;;11.40;2.20;;;19.70;99.90;;;;;;4762310;29;20205;-77
2021/05/31 09:06:56;;;;;;;14.63;3.03;;;19.00;99.90;;;;;;4776521;28;20718;-77
2021/05/31 09:09:18;;;;;;;6.20;1.40;;;;;;;;;;4797371;28;20254;-78
2021/05/31 09:11:40;;;;;;;7.47;1.70;;;;;;;;;;4815359;28;20205;-78
2021/05/31 09:14:04;;;;;;;6.47;1.50;;;18.70;99.90;;;;;;4815986;28;20188;-78
2021/05/31 09:16:27;;;;;;;5.40;1.23;;;18.50;99.90;;;;;;4798838;28;20208;-79
2021/05/31 09:18:51;;;;;;;12.03;2.47;;;18.10;1.00;;;;;;4798031;28;20216;-79
2021/05/31 09:21:15;;;;;;;6.67;1.60;;;17.80;99.90;;;;;;4801706;28;20231;-77
2021/05/31 09:23:37;;;;;;;8.50;1.97;;;;;;;;;;4800821;28;20204;-77
2021/05/31 09:26:04;;;;;;;7.37;1.80;;;17.10;99.90;;;;;;4801111;28;20243;-76
2021/05/31 09:28:26;;;;;;;7.50;1.70;;;;;;;;;;4800859;28;20239;-78
2021/05/31 09:30:50;;;;;;;7.87;1.73;;;16.60;1.00;;;;;;4798206;28;20204;-77
2021/05/31 09:33:14;;;;;;;8.10;1.97;;;16.70;1.00;;;;;;4800215;28;20196;-78
2021/05/31 09:35:40;;;;;;;6.93;1.60;;;17.00;1.00;;;;;;4799698;28;20259;-77
2021/05/31 09:38:02;;;;;;;9.60;2.20;;;17.30;99.90;;;;;;4801181;28;20219;-76
2021/05/31 09:40:26;;;;;;;9.83;2.20;;;18.50;99.90;;;;;;4799665;28;20272;-79
2021/05/31 09:42:49;;;;;;;8.10;1.90;;;18.90;99.90;;;;;;4800720;28;20262;-79
2021/05/31 09:45:12;;;;;;;5.80;1.33;;;;;;;;;;4799766;28;20217;-80
2021/05/31 09:47:37;;;;;;;5.43;1.30;;;18.70;99.90;;;;;;4801678;28;20197;-77
2021/05/31 09:49:59;;;;;;;9.10;2.07;;;;;;;;;;4782254;28;20245;-77
2021/05/31 09:52:22;;;;;;;7.77;1.80;;;;;;;;;;4799619;28;20190;-76
2021/05/31 09:54:46;;;;;;;8.97;2.00;;;17.90;99.90;;;;;;4800749;28;20204;-76
2021/05/31 09:57:19;;;;;;;6.97;1.60;;;17.80;99.90;;;;;;4801393;28;20188;-76
2021/05/31 09:59:42;;;;;;;8.23;1.87;;;;;;;;;;4799628;28;20271;-76
2021/05/31 10:02:05;;;;;;;20.47;4.43;;;;;;;;;;4786705;28;20228;-75
2021/05/31 10:04:41;;;;;;;5.83;1.40;;;18.30;1.00;;;;;;4780951;29;20617;-75
2021/05/31 10:07:18;;;;;;;6.17;1.50;;;17.90;99.90;;;;;;4780532;29;20707;-75
2021/05/31 10:09:41;;;;;;;6.67;1.57;;;;;;;;;;4780830;29;20558;-76
2021/05/31 10:12:04;;;;;;;18.60;4.13;;;;;;;;;;4779410;29;20189;-74
2021/05/31 10:14:26;;;;;;;5.43;1.20;;;;;;;;;;4763931;29;20224;-75
2021/05/31 10:16:49;;;;;;;7.33;1.50;;;20.40;99.90;;;;;;4780884;29;20314;-77
2021/05/31 10:19:12;;;;;;;7.40;1.73;;;21.90;99.90;;;;;;4780354;29;20262;-77
2021/05/31 10:21:36;;;;;;;8.40;1.80;;;22.00;99.90;;;;;;4781750;28;20188;-78
2021/05/31 10:23:58;;;;;;;8.93;2.07;;;;;;;;;;4791156;28;20228;-77
2021/05/31 10:26:22;;;;;;;7.10;1.60;;;;;;;;;;4800915;28;20237;-76
2021/05/31 10:28:44;;;;;;;6.37;1.43;;;22.00;1.00;;;;;;4799497;28;20193;-76
2021/05/31 10:31:08;;;;;;;5.93;1.37;;;21.30;99.90;;;;;;4798157;28;20249;-77
2021/05/31 10:33:31;;;;;;;3.97;0.97;;;;;;;;;;4799167;28;20595;-78
2021/05/31 10:35:58;;;;;;;10.40;2.20;;;21.60;99.90;;;;;;4798681;28;20185;-78
2021/05/31 10:38:23;;;;;;;7.97;1.43;;;23.40;99.90;;;;;;4800290;28;20229;-79
2021/05/31 10:40:47;;;;;;;11.37;1.77;;;25.20;99.90;;;;;;4800634;28;20187;-77
2021/05/31 10:43:11;;;;;;;23.60;3.20;;;26.20;99.90;;;;;;4798739;28;20733;-77
2021/05/31 10:45:33;;;;;;;20.97;2.80;;;27.90;99.90;;;;;;4799442;28;20227;-76
2021/05/31 10:48:01;;;;;;;23.10;3.00;;;28.00;99.90;;;;;;4798120;28;20260;-77
2021/05/31 10:50:31;;;;;;;13.10;1.77;;;27.50;99.90;;;;;;4799865;28;20188;-75
2021/05/31 10:52:53;;;;;;;23.00;3.10;;;;;;;;;;4797459;28;20844;-75
2021/05/31 10:55:17;;;;;;;20.83;2.80;;;26.90;99.90;;;;;;4795226;28;20261;-78
2021/05/31 10:57:40;;;;;;;16.57;2.23;;;;;;;;;;4797273;28;20531;-78
2021/05/31 11:00:02;;;;;;;38.50;10.47;;;;;;;;;;4798283;28;20587;-78
2021/05/31 11:02:26;;;;;;;20.63;2.80;;;33.20;99.90;;;;;;4794834;28;20283;-82
2021/05/31 11:04:49;;;;;;;92.70;85.70;;;;;;;;;;4780240;28;20192;-83
2021/05/31 11:07:12;;;;;;;472.75;361.48;;;;;;;;;;4798347;28;20601;-82
2021/05/31 11:09:34;;;;;;;471.75;388.65;;;;;;;;;;4793665;28;20239;-79
2021/05/31 11:12:00;;;;;;;500.52;405.90;;;39.90;99.90;;;;;;4782291;28;20205;-78
2021/05/31 11:14:32;;;;;;;479.90;415.77;;;41.00;99.90;;;;;;4797977;28;20247;-77
2021/05/31 11:16:55;;;;;;;480.48;411.80;;;41.90;99.90;;;;;;4792059;28;20188;-79
2021/05/31 11:19:18;;;;;;;485.17;427.90;;;;;;;;;;4780709;28;20200;-81
2021/05/31 11:21:44;;;;;;;483.88;431.45;;;42.10;99.90;;;;;;4765056;28;20190;-79
2021/05/31 11:24:09;;;;;;;475.88;423.70;;;41.00;99.90;;;;;;4780374;28;20275;-82
2021/05/31 11:26:35;;;;;;;483.45;431.33;;;41.40;99.90;;;;;;4777838;28;20212;-81
2021/05/31 11:28:58;;;;;;;488.10;433.38;;;41.70;99.90;;;;;;4778745;28;20217;-81
2021/05/31 11:31:21;;;;;;;492.58;437.77;;;;;;;;;;4777889;28;20204;-80
2021/05/31 11:33:43;;;;;;;493.00;440.60;;;;;;;;;;4764516;28;20192;-78
2021/05/31 11:36:06;;;;;;;500.45;445.95;;;;;;;;;;4780270;28;20227;-79
2021/05/31 11:38:28;;;;;;;512.30;458.75;;;;;;;;;;4797670;28;20733;-81
2021/05/31 11:40:50;;;;;;;492.23;440.08;;;;;;;;;;4774118;28;20201;-80
2021/05/31 11:43:14;;;;;;;483.80;431.40;;;40.00;99.90;;;;;;4795171;28;20195;-78
2021/05/31 11:45:43;;;;;;;502.67;448.80;;;38.60;99.90;;;;;;4795378;28;20184;-78
2021/05/31 11:48:08;;;;;;;477.98;420.83;;;36.70;99.90;;;;;;4779243;28;20209;-80
2021/05/31 11:50:33;;;;;;;460.17;397.70;;;35.10;99.90;;;;;;4780724;28;20200;-76
2021/05/31 11:52:56;;;;;;;488.83;394.98;;;;;;;;;;4763860;28;20211;-82
2021/05/31 11:55:21;;;;;;;467.95;390.70;;;34.00;99.90;;;;;;4798610;28;20192;-77
2021/05/31 11:57:44;;;;;;;466.98;387.60;;;34.40;99.90;;;;;;4779685;28;20200;-77
2021/05/31 12:00:08;;;;;;;465.75;376.13;;;34.00;99.90;;;;;;4778415;28;20785;-77
2021/05/31 12:02:40;;;;;;;440.15;369.05;;;33.70;99.90;;;;;;4794329;28;20250;-82
2021/05/31 12:05:02;;;;;;;435.30;370.20;;;;;;;;;;4780526;28;20196;-83
2021/05/31 12:07:25;;;;;;;415.08;368.67;;;32.60;99.90;;;;;;4780905;28;20231;-82
2021/05/31 12:09:48;;;;;;;396.02;354.83;;;;;;;;;;4795594;28;20232;-78
2021/05/31 12:12:11;;;;;;;391.15;351.38;;;32.70;99.90;;;;;;4796231;28;20195;-80
2021/05/31 12:14:43;;;;;;;376.45;340.52;;;32.50;99.90;;;;;;4828886;28;20233;-80
2021/05/31 12:17:06;;;;;;;375.25;336.55;;;;;;;;;;4781233;28;20193;-77
2021/05/31 12:19:30;;;;;;;373.25;335.95;;;33.40;99.90;;;;;;4797404;28;20187;-76
2021/05/31 12:21:56;;;;;;;375.77;338.30;;;34.90;99.90;;;;;;4779949;28;20736;-79
2021/05/31 12:24:24;;;;;;;389.67;352.90;;;35.30;99.90;;;;;;4795847;28;20219;-77
2021/05/31 12:26:47;;;;;;;362.23;329.58;;;;;;;;;;4805568;28;20195;-78
2021/05/31 12:29:12;;;;;;;352.25;321.52;;;33.30;99.90;;;;;;4796410;28;20235;-77
2021/05/31 12:31:35;;;;;;;351.52;320.23;;;;;;;;;;4795932;28;20238;-77
2021/05/31 12:34:00;;;;;;;293.40;267.45;;;32.70;99.90;;;;;;4798186;28;20196;-78
2021/05/31 12:36:23;;;;;;;132.52;124.43;;;33.80;99.90;;;;;;4797612;28;20183;-83
2021/05/31 12:38:46;;;;;;;122.75;115.53;;;;;;;;;;4798915;28;20238;-79
2021/05/31 12:41:08;;;;;;;130.10;122.20;;;;;;;;;;4798543;28;20303;-76
2021/05/31 12:43:32;;;;;;;94.20;87.43;;;30.40;99.90;;;;;;4779575;28;20247;-77
2021/05/31 12:45:54;;;;;;;62.30;51.83;;;;;;;;;;4795834;28;20207;-78
2021/05/31 12:48:18;;;;;;;41.08;29.25;;;27.40;99.90;;;;;;4795956;28;20262;-82
2021/05/31 12:50:40;;;;;;;46.13;20.90;;;;;;;;;;4796792;28;20191;-76
2021/05/31 12:53:05;;;;;;;58.38;20.52;;;25.20;99.90;;;;;;4811583;28;20202;-80
2021/05/31 12:55:30;;;;;;;32.30;14.03;;;24.60;99.90;;;;;;4799341;28;20194;-76
2021/05/31 12:57:52;;;;;;;42.07;10.20;;;24.00;99.90;;;;;;4782884;28;20206;-83
2021/05/31 13:00:16;;;;;;;24.73;8.13;;;23.70;99.90;;;;;;4799674;28;20562;-82
2021/05/31 13:02:43;;;;;;;29.70;10.03;;;23.80;99.90;;;;;;4799468;28;20228;-82
2021/05/31 13:05:10;;;;;;;38.53;8.90;;;23.90;99.90;;;;;;4801090;28;20278;-78
2021/05/31 13:07:35;;;;;;;25.53;12.53;;;25.50;99.90;;;;;;4798922;28;20257;-82
2021/05/31 13:10:05;;;;;;;52.93;24.80;;;28.10;99.90;;;;;;4798046;28;20227;-77
2021/05/31 13:12:30;;;;;;;45.90;41.10;;;;;;;;;;4816613;28;20199;-81
2021/05/31 13:14:53;;;;;;;52.05;46.78;;;33.30;99.90;;;;;;4804766;28;20246;-80
2021/05/31 13:17:15;;;;;;;87.38;80.57;;;35.80;99.90;;;;;;4799144;28;20219;-79